createdAt,value
2017-12-10T00:02:08.565Z,1.10
2017-12-10T00:04:36.613Z,1.10
2017-12-10T00:07:05.450Z,1.10
2017-12-10T00:09:33.519Z,1.10
2017-12-10T00:12:01.573Z,1.10
2017-12-10T00:14:29.642Z,1.10
2017-12-10T00:16:57.700Z,1.10
2017-12-10T00:19:26.605Z,1.10
2017-12-10T00:21:54.657Z,1.00
2017-12-10T00:24:23.461Z,1.00
2017-12-10T00:26:51.521Z,1.70
2017-12-10T00:29:20.441Z,1.00
2017-12-10T00:31:48.605Z,0.90
2017-12-10T00:34:16.677Z,1.00
2017-12-10T00:36:44.849Z,1.00
2017-12-10T00:39:12.927Z,0.90
2017-12-10T00:41:40.972Z,0.90
2017-12-10T00:44:09.890Z,1.00
2017-12-10T00:46:37.977Z,1.00
2017-12-10T00:49:06.137Z,0.90
2017-12-10T00:51:34.205Z,0.90
2017-12-10T00:54:02.282Z,1.00
2017-12-10T00:56:30.345Z,1.00
2017-12-10T00:58:58.401Z,1.00
2017-12-10T01:01:26.449Z,0.90
2017-12-10T01:03:54.566Z,1.00
2017-12-10T01:06:28.569Z,0.90
2017-12-10T01:08:57.056Z,0.90
2017-12-10T01:11:25.108Z,0.90
2017-12-10T01:13:53.165Z,1.00
2017-12-10T01:16:21.981Z,0.90
2017-12-10T01:18:50.050Z,0.90
2017-12-10T01:21:18.489Z,0.90
2017-12-10T01:23:46.613Z,0.80
2017-12-10T01:26:14.681Z,0.90
2017-12-10T01:28:42.857Z,0.90
2017-12-10T01:31:10.924Z,1.00
2017-12-10T01:33:38.969Z,0.90
2017-12-10T01:36:07.793Z,1.00
2017-12-10T01:38:35.857Z,1.00
2017-12-10T01:41:03.901Z,0.90
2017-12-10T01:43:32.725Z,0.90
2017-12-10T01:46:00.796Z,0.90
2017-12-10T01:48:29.258Z,0.80
2017-12-10T01:50:57.339Z,0.90
2017-12-10T01:53:26.137Z,0.80
2017-12-10T01:55:54.312Z,0.80
2017-12-10T01:58:22.403Z,0.90
2017-12-10T02:00:50.462Z,0.90
2017-12-10T02:03:18.529Z,0.90
2017-12-10T02:05:46.603Z,0.90
2017-12-10T02:08:14.668Z,0.80
2017-12-10T02:10:42.717Z,0.80
2017-12-10T02:13:11.558Z,0.80
2017-12-10T02:15:39.606Z,0.80
2017-12-10T02:18:07.784Z,0.90
2017-12-10T02:20:35.852Z,0.90
2017-12-10T02:23:03.936Z,0.90
2017-12-10T02:25:32.801Z,0.80
2017-12-10T02:28:00.884Z,0.80
2017-12-10T02:30:29.056Z,0.80
2017-12-10T02:32:57.134Z,0.80
2017-12-10T02:35:25.193Z,0.90
2017-12-10T02:37:53.259Z,0.90
2017-12-10T02:40:21.346Z,0.90
2017-12-10T02:42:49.417Z,0.80
2017-12-10T02:45:17.589Z,0.80
2017-12-10T02:47:45.637Z,0.80
2017-12-10T02:50:15.065Z,0.80
2017-12-10T02:52:44.333Z,0.80
2017-12-10T02:55:13.157Z,0.80
2017-12-10T02:57:41.212Z,0.80
2017-12-10T03:00:09.302Z,0.80
2017-12-10T03:02:37.364Z,0.90
2017-12-10T03:05:05.409Z,0.80
2017-12-10T03:07:34.224Z,0.80
2017-12-10T03:10:02.289Z,0.80
2017-12-10T03:12:30.376Z,0.70
2017-12-10T03:14:58.445Z,0.70
2017-12-10T03:17:26.525Z,0.70
2017-12-10T03:19:55.409Z,0.70
2017-12-10T03:22:23.483Z,0.70
2017-12-10T03:24:51.532Z,0.70
2017-12-10T03:27:20.346Z,0.60
2017-12-10T03:29:48.416Z,0.60
2017-12-10T03:32:16.501Z,0.50
2017-12-10T03:34:44.561Z,0.60
2017-12-10T03:37:12.621Z,0.50
2017-12-10T03:39:40.701Z,0.50
2017-12-10T03:42:08.753Z,0.60
2017-12-10T03:44:36.845Z,0.50
2017-12-10T03:47:04.908Z,0.50
2017-12-10T03:49:32.952Z,0.50
2017-12-10T03:52:01.877Z,0.50
2017-12-10T03:54:29.937Z,0.50
2017-12-10T03:56:58.849Z,0.50
2017-12-10T03:59:26.913Z,0.50
2017-12-10T04:01:54.977Z,0.50
2017-12-10T04:04:23.056Z,0.40
2017-12-10T04:06:51.118Z,0.50
2017-12-10T04:09:19.201Z,0.50
2017-12-10T04:11:47.245Z,0.50
2017-12-10T04:14:16.051Z,0.50
2017-12-10T04:16:44.133Z,0.40
2017-12-10T04:19:12.204Z,0.40
2017-12-10T04:21:40.281Z,0.40
2017-12-10T04:24:08.331Z,0.50
2017-12-10T04:26:37.137Z,0.40
2017-12-10T04:29:05.981Z,0.40
2017-12-10T04:31:34.101Z,0.40
2017-12-10T04:34:02.157Z,0.40
2017-12-10T04:36:30.248Z,0.40
2017-12-10T04:38:58.317Z,0.30
2017-12-10T04:41:26.357Z,0.30
2017-12-10T04:43:55.185Z,0.30
2017-12-10T04:46:23.248Z,0.30
2017-12-10T04:48:51.317Z,0.30
2017-12-10T04:51:19.392Z,0.30
2017-12-10T04:53:47.464Z,0.30
2017-12-10T04:56:15.550Z,0.30
2017-12-10T04:58:43.709Z,0.30
2017-12-10T05:01:11.786Z,0.30
2017-12-10T05:03:39.857Z,0.30
2017-12-10T05:06:07.908Z,0.30
2017-12-10T05:08:35.953Z,0.30
2017-12-10T05:11:04.005Z,0.30
2017-12-10T05:13:32.061Z,0.40
2017-12-10T05:16:00.124Z,0.40
2017-12-10T05:18:28.169Z,0.40
2017-12-10T05:20:56.222Z,0.40
2017-12-10T05:23:25.145Z,0.30
2017-12-10T05:25:53.217Z,0.40
2017-12-10T05:28:21.289Z,0.40
2017-12-10T05:30:49.768Z,0.40
2017-12-10T05:33:17.812Z,0.30
2017-12-10T05:35:46.733Z,0.30
2017-12-10T05:38:14.809Z,0.30
2017-12-10T05:40:42.857Z,0.30
2017-12-10T05:43:10.908Z,0.30
2017-12-10T05:45:39.840Z,0.30
2017-12-10T05:48:07.909Z,0.30
2017-12-10T05:50:35.956Z,0.40
2017-12-10T05:53:04.931Z,0.30
2017-12-10T05:55:32.981Z,0.30
2017-12-10T05:58:01.120Z,0.30
2017-12-10T06:00:29.581Z,0.30
2017-12-10T06:02:58.493Z,0.30
2017-12-10T06:05:27.385Z,0.30
2017-12-10T06:07:55.905Z,0.20
2017-12-10T06:10:23.949Z,0.20
2017-12-10T06:12:52.849Z,0.20
2017-12-10T06:15:20.901Z,0.20
2017-12-10T06:17:48.957Z,0.20
2017-12-10T06:20:17.784Z,0.30
2017-12-10T06:22:46.229Z,0.20
2017-12-10T06:25:14.720Z,0.30
2017-12-10T06:27:42.951Z,0.30
2017-12-10T06:30:11.792Z,0.30
2017-12-10T06:32:39.828Z,0.30
2017-12-10T06:35:08.658Z,0.30
2017-12-10T06:37:36.820Z,0.30
2017-12-10T06:40:05.272Z,0.30
2017-12-10T06:42:34.098Z,0.30
2017-12-10T06:45:02.559Z,0.40
2017-12-10T06:47:30.649Z,0.40
2017-12-10T06:49:58.700Z,0.40
2017-12-10T06:52:26.765Z,0.40
2017-12-10T06:54:55.577Z,0.20
2017-12-10T06:57:23.648Z,0.20
2017-12-10T06:59:51.709Z,0.20
2017-12-10T07:02:19.796Z,0.20
2017-12-10T07:04:48.276Z,0.20
2017-12-10T07:07:16.724Z,0.10
2017-12-10T07:09:45.549Z,0.10
2017-12-10T07:12:13.749Z,0.10
2017-12-10T07:14:42.558Z,0.10
2017-12-10T07:17:10.624Z,0.00
2017-12-10T07:19:40.168Z,0.00
2017-12-10T07:22:08.262Z,0.00
2017-12-10T07:24:36.305Z,0.00
2017-12-10T07:27:05.113Z,0.00
2017-12-10T07:29:33.176Z,0.00
2017-12-10T07:32:01.620Z,-0.10
2017-12-10T07:34:29.761Z,0.00
2017-12-10T07:36:58.568Z,0.00
2017-12-10T07:39:26.733Z,0.00
2017-12-10T07:41:54.880Z,0.00
2017-12-10T07:44:23.057Z,-0.10
2017-12-10T07:46:51.497Z,0.00
2017-12-10T07:49:20.308Z,0.00
2017-12-10T07:51:48.428Z,-0.10
2017-12-10T07:54:16.489Z,0.00
2017-12-10T07:56:44.647Z,0.00
2017-12-10T07:59:13.844Z,0.00
2017-12-10T08:01:41.880Z,0.00
2017-12-10T08:04:10.724Z,0.00
2017-12-10T08:06:38.760Z,0.00
2017-12-10T08:09:06.813Z,-0.10
2017-12-10T08:11:35.650Z,-0.10
2017-12-10T08:14:03.708Z,0.10
2017-12-10T08:16:32.191Z,0.30
2017-12-10T08:19:00.361Z,0.40
2017-12-10T08:21:28.433Z,0.40
2017-12-10T08:23:56.508Z,0.30
2017-12-10T08:26:24.576Z,0.40
2017-12-10T08:28:52.653Z,0.40
2017-12-10T08:31:20.700Z,0.40
2017-12-10T08:33:49.613Z,0.30
2017-12-10T08:36:17.656Z,0.40
2017-12-10T08:38:46.469Z,0.60
2017-12-10T08:41:14.530Z,0.80
2017-12-10T08:43:43.333Z,0.90
2017-12-10T08:46:11.392Z,0.80
2017-12-10T08:48:39.475Z,1.00
2017-12-10T08:51:07.521Z,0.90
2017-12-10T08:53:36.489Z,0.90
2017-12-10T08:56:05.328Z,1.00
2017-12-10T08:58:33.785Z,1.30
2017-12-10T09:01:02.705Z,1.50
2017-12-10T09:03:30.773Z,1.40
2017-12-10T09:05:58.839Z,1.50
2017-12-10T09:08:26.882Z,1.60
2017-12-10T09:10:55.704Z,1.60
2017-12-10T09:13:23.748Z,1.70
2017-12-10T09:15:52.669Z,1.60
2017-12-10T09:18:20.720Z,1.70
2017-12-10T09:20:48.817Z,2.00
2017-12-10T09:23:17.282Z,2.00
2017-12-10T09:25:45.320Z,2.10
2017-12-10T09:28:13.366Z,1.80
2017-12-10T09:30:41.533Z,1.80
2017-12-10T09:33:09.601Z,2.10
2017-12-10T09:35:37.653Z,2.10
2017-12-10T09:38:05.725Z,2.10
2017-12-10T09:40:33.795Z,2.10
2017-12-10T09:43:01.837Z,2.20
2017-12-10T09:45:30.673Z,2.30
2017-12-10T09:47:58.833Z,2.30
2017-12-10T09:50:26.905Z,2.30
2017-12-10T09:52:54.981Z,2.30
2017-12-10T09:55:23.044Z,2.10
2017-12-10T09:57:51.089Z,2.20
2017-12-10T10:00:20.013Z,2.40
2017-12-10T10:02:48.087Z,2.30
2017-12-10T10:05:16.543Z,2.30
2017-12-10T10:07:45.353Z,2.10
2017-12-10T10:10:13.405Z,1.70
2017-12-10T10:12:41.913Z,1.30
2017-12-10T10:15:10.373Z,1.20
2017-12-10T10:17:38.433Z,0.90
2017-12-10T10:20:06.868Z,2.40
2017-12-10T10:22:35.013Z,0.70
2017-12-10T10:25:03.056Z,0.60
2017-12-10T10:27:31.496Z,0.50
2017-12-10T10:29:59.641Z,0.70
2017-12-10T10:32:27.713Z,0.70
2017-12-10T10:34:55.773Z,0.50
2017-12-10T10:37:23.818Z,0.50
2017-12-10T10:39:52.748Z,0.40
2017-12-10T10:42:21.185Z,0.40
2017-12-10T10:44:49.296Z,0.40
2017-12-10T10:47:17.365Z,0.30
2017-12-10T10:49:45.441Z,0.30
2017-12-10T10:52:13.519Z,0.40
2017-12-10T10:54:41.573Z,0.50
2017-12-10T10:57:09.617Z,0.50
2017-12-10T10:59:37.724Z,0.60
2017-12-10T11:02:06.208Z,0.40
2017-12-10T11:04:34.265Z,0.40
2017-12-10T11:07:02.348Z,0.30
2017-12-10T11:09:30.409Z,0.30
2017-12-10T11:11:58.501Z,0.30
2017-12-10T11:14:27.309Z,0.30
2017-12-10T11:16:55.873Z,0.10
2017-12-10T11:19:23.940Z,0.00
2017-12-10T11:21:52.041Z,0.00
2017-12-10T11:24:20.812Z,0.10
2017-12-10T11:26:48.857Z,0.20
2017-12-10T11:29:16.945Z,0.30
2017-12-10T11:31:45.001Z,0.20
2017-12-10T11:34:13.065Z,0.10
2017-12-10T11:36:41.872Z,0.00
2017-12-10T11:39:09.921Z,0.00
2017-12-10T11:41:38.840Z,0.10
2017-12-10T11:44:07.737Z,0.20
2017-12-10T11:46:36.189Z,0.10
2017-12-10T11:49:04.997Z,0.10
2017-12-10T11:51:33.066Z,0.20
2017-12-10T11:54:01.105Z,0.40
2017-12-10T11:56:29.224Z,0.40
2017-12-10T11:58:57.292Z,0.20
2017-12-10T12:01:25.354Z,0.20
2017-12-10T12:03:53.432Z,0.40
2017-12-10T12:06:21.471Z,0.70
2017-12-10T12:08:49.985Z,0.80
2017-12-10T12:11:18.437Z,0.80
2017-12-10T12:13:47.257Z,0.60
2017-12-10T12:16:15.329Z,0.70
2017-12-10T12:18:43.500Z,0.80
2017-12-10T12:21:11.549Z,0.80
2017-12-10T12:23:40.464Z,1.00
2017-12-10T12:26:08.945Z,0.90
2017-12-10T12:28:37.008Z,0.80
2017-12-10T12:31:05.052Z,0.60
2017-12-10T12:33:33.869Z,0.50
2017-12-10T12:36:01.906Z,0.80
2017-12-10T12:38:30.007Z,1.00
2017-12-10T12:40:58.825Z,1.20
2017-12-10T12:43:26.887Z,1.20
2017-12-10T12:45:54.937Z,1.30
2017-12-10T12:48:23.060Z,1.40
2017-12-10T12:50:51.202Z,1.40
2017-12-10T12:53:19.654Z,1.30
2017-12-10T12:55:48.101Z,1.30
2017-12-10T12:58:16.252Z,1.30
2017-12-10T13:00:44.309Z,1.30
2017-12-10T13:03:12.353Z,1.50
2017-12-10T13:05:41.190Z,1.40
2017-12-10T13:08:09.345Z,1.60
2017-12-10T13:10:37.437Z,1.60
2017-12-10T13:13:05.521Z,1.50
2017-12-10T13:15:33.581Z,1.70
2017-12-10T13:18:01.625Z,1.80
2017-12-10T13:20:29.700Z,1.60
2017-12-10T13:22:57.747Z,1.50
2017-12-10T13:25:26.665Z,1.30
2017-12-10T13:27:54.732Z,1.30
2017-12-10T13:30:22.811Z,1.20
2017-12-10T13:32:50.865Z,1.20
2017-12-10T13:35:18.954Z,1.10
2017-12-10T13:37:47.038Z,1.20
2017-12-10T13:40:15.505Z,1.50
2017-12-10T13:42:43.564Z,1.50
2017-12-10T13:45:11.649Z,1.80
2017-12-10T13:47:40.472Z,1.90
2017-12-10T13:50:08.525Z,1.60
2017-12-10T13:52:36.988Z,1.40
2017-12-10T13:55:05.165Z,1.40
2017-12-10T13:57:33.241Z,1.50
2017-12-10T14:00:01.313Z,1.60
2017-12-10T14:02:29.382Z,1.80
2017-12-10T14:04:57.452Z,1.90
2017-12-10T14:07:25.630Z,1.90
2017-12-10T14:09:53.672Z,1.40
2017-12-10T14:12:22.589Z,1.40
2017-12-10T14:14:50.660Z,1.60
2017-12-10T14:17:18.696Z,1.80
2017-12-10T14:19:47.504Z,1.80
2017-12-10T14:22:15.609Z,1.50
2017-12-10T14:24:43.661Z,1.30
2017-12-10T14:27:11.737Z,1.30
2017-12-10T14:29:39.780Z,1.20
2017-12-10T14:32:08.705Z,1.10
2017-12-10T14:34:36.745Z,1.20
2017-12-10T14:37:05.595Z,1.30
2017-12-10T14:39:33.737Z,1.30
2017-12-10T14:42:01.780Z,1.20
2017-12-10T14:44:30.593Z,1.20
2017-12-10T14:46:59.067Z,1.20
2017-12-10T14:49:28.676Z,1.00
2017-12-10T14:51:56.870Z,1.00
2017-12-10T14:54:24.932Z,0.80
2017-12-10T14:56:52.996Z,0.80
2017-12-10T14:59:21.080Z,1.00
2017-12-10T15:01:49.255Z,0.90
2017-12-10T15:04:17.317Z,1.00
2017-12-10T15:06:45.805Z,1.00
2017-12-10T15:09:13.863Z,1.00
2017-12-10T15:11:41.920Z,1.00
2017-12-10T15:14:10.848Z,1.00
2017-12-10T15:16:39.665Z,1.00
2017-12-10T15:19:07.800Z,0.90
2017-12-10T15:21:35.853Z,1.00
2017-12-10T15:24:03.929Z,0.90
2017-12-10T15:26:31.977Z,0.90
2017-12-10T15:29:00.088Z,0.90
2017-12-10T15:31:28.405Z,1.00
2017-12-10T15:33:56.461Z,1.20
2017-12-10T15:36:24.513Z,1.70
2017-12-10T15:38:52.584Z,1.30
2017-12-10T15:41:20.661Z,1.50
2017-12-10T15:43:48.708Z,1.50
2017-12-10T15:46:17.538Z,1.60
2017-12-10T15:48:46.792Z,1.70
2017-12-10T15:51:14.817Z,1.50
2017-12-10T15:53:42.873Z,1.40
2017-12-10T15:56:10.920Z,1.30
2017-12-10T15:58:39.005Z,1.20
2017-12-10T16:01:07.057Z,1.10
2017-12-10T16:03:35.969Z,1.30
2017-12-10T16:06:04.044Z,1.40
2017-12-10T16:08:32.109Z,1.50
2017-12-10T16:11:00.569Z,1.70
2017-12-10T16:13:29.488Z,1.50
2017-12-10T16:15:57.533Z,1.40
2017-12-10T16:18:25.631Z,1.40
2017-12-10T16:20:53.701Z,1.50
2017-12-10T16:23:21.773Z,1.40
2017-12-10T16:25:49.841Z,1.40
2017-12-10T16:28:17.914Z,1.60
2017-12-10T16:30:46.094Z,1.70
2017-12-10T16:33:14.178Z,1.70
2017-12-10T16:35:42.225Z,1.70
2017-12-10T16:38:10.304Z,1.80
2017-12-10T16:40:38.386Z,2.00
2017-12-10T16:43:06.829Z,2.00
2017-12-10T16:45:35.644Z,2.10
2017-12-10T16:48:03.721Z,2.30
2017-12-10T16:50:32.726Z,2.30
2017-12-10T16:53:00.789Z,2.50
2017-12-10T16:55:28.957Z,2.70
2017-12-10T16:57:57.000Z,2.90
2017-12-10T17:00:25.922Z,2.80
2017-12-10T17:02:54.373Z,3.00
2017-12-10T17:05:22.837Z,2.80
2017-12-10T17:07:52.489Z,2.80
2017-12-10T17:10:20.541Z,2.80
2017-12-10T17:12:48.654Z,2.90
2017-12-10T17:15:16.822Z,3.00
2017-12-10T17:17:44.976Z,3.00
2017-12-10T17:20:13.057Z,3.10
2017-12-10T17:22:41.117Z,3.10
2017-12-10T17:25:09.301Z,3.10
2017-12-10T17:27:37.373Z,2.90
2017-12-10T17:30:05.482Z,2.90
2017-12-10T17:32:33.544Z,3.00
2017-12-10T17:35:01.580Z,3.20
2017-12-10T17:37:29.667Z,3.20
2017-12-10T17:39:57.734Z,3.30
2017-12-10T17:42:25.805Z,3.40
2017-12-10T17:44:53.844Z,3.30
2017-12-10T17:47:22.657Z,3.40
2017-12-10T17:49:50.739Z,3.40
2017-12-10T17:52:18.789Z,3.40
2017-12-10T17:54:47.710Z,3.40
2017-12-10T17:57:15.777Z,3.30
2017-12-10T17:59:43.866Z,3.30
2017-12-10T18:02:11.958Z,3.30
2017-12-10T18:04:40.365Z,3.30
2017-12-10T18:07:09.301Z,3.20
2017-12-10T18:09:37.420Z,3.20
2017-12-10T18:12:05.538Z,3.20
2017-12-10T18:14:33.609Z,3.10
2017-12-10T18:17:01.685Z,3.10
2017-12-10T18:19:29.765Z,3.10
2017-12-10T18:21:57.813Z,2.90
2017-12-10T18:24:27.032Z,2.70
2017-12-10T18:26:55.109Z,2.60
2017-12-10T18:29:23.244Z,2.60
2017-12-10T18:31:51.353Z,2.50
2017-12-10T18:34:19.457Z,2.50
2017-12-10T18:36:47.621Z,2.70
2017-12-10T18:39:15.669Z,2.70
2017-12-10T18:41:43.821Z,2.80
2017-12-10T18:44:12.637Z,3.00
2017-12-10T18:46:40.685Z,3.00
2017-12-10T18:49:09.605Z,3.00
2017-12-10T18:51:37.656Z,3.10
2017-12-10T18:54:05.701Z,3.20
2017-12-10T18:56:33.765Z,3.20
2017-12-10T18:59:01.885Z,3.40
2017-12-10T19:01:29.929Z,3.40
2017-12-10T19:03:58.849Z,3.50
2017-12-10T19:06:26.921Z,3.50
2017-12-10T19:08:54.992Z,3.50
2017-12-10T19:11:23.090Z,3.50
2017-12-10T19:13:51.137Z,3.40
2017-12-10T19:16:19.192Z,3.80
2017-12-10T19:18:47.277Z,4.00
2017-12-10T19:21:15.457Z,4.00
2017-12-10T19:23:44.345Z,4.20
2017-12-10T19:26:12.396Z,4.20
2017-12-10T19:28:40.461Z,4.30
2017-12-10T19:31:09.276Z,4.30
2017-12-10T19:33:37.349Z,4.50
2017-12-10T19:36:05.409Z,4.50
2017-12-10T19:38:33.493Z,4.60
2017-12-10T19:41:01.673Z,4.60
2017-12-10T19:43:29.741Z,4.60
2017-12-10T19:45:57.824Z,4.60
2017-12-10T19:48:25.991Z,4.50
2017-12-10T19:50:54.057Z,4.50
2017-12-10T19:53:22.129Z,4.60
2017-12-10T19:55:50.213Z,4.60
2017-12-10T19:58:18.281Z,4.40
2017-12-10T20:00:46.390Z,4.40
2017-12-10T20:03:14.829Z,4.40
2017-12-10T20:05:42.888Z,4.40
2017-12-10T20:08:10.970Z,4.30
2017-12-10T20:10:39.041Z,4.00
2017-12-10T20:13:08.236Z,4.00
2017-12-10T20:15:36.297Z,4.00
2017-12-10T20:18:04.344Z,4.10
2017-12-10T20:20:33.273Z,4.00
2017-12-10T20:23:01.428Z,4.30
2017-12-10T20:25:29.013Z,4.20
2017-12-10T20:27:56.585Z,4.30
2017-12-10T20:30:24.144Z,4.30
2017-12-10T20:32:51.708Z,4.20
2017-12-10T20:35:19.217Z,4.30
2017-12-10T20:37:47.485Z,4.50
2017-12-10T20:40:14.984Z,4.50
2017-12-10T20:42:42.487Z,4.60
2017-12-10T20:45:10.764Z,4.70
2017-12-10T20:47:38.300Z,4.60
2017-12-10T20:50:05.794Z,4.50
2017-12-10T20:52:33.296Z,4.50
2017-12-10T20:55:00.793Z,4.50
2017-12-10T20:57:28.433Z,4.50
2017-12-10T20:59:56.645Z,4.50
2017-12-10T21:02:24.136Z,4.60
2017-12-10T21:04:51.732Z,4.60
2017-12-10T21:07:19.240Z,4.80
2017-12-10T21:09:46.848Z,5.00
2017-12-10T21:12:14.380Z,5.30
2017-12-10T21:14:42.268Z,5.40
2017-12-10T21:17:09.800Z,5.50
2017-12-10T21:19:37.316Z,5.50
2017-12-10T21:22:04.828Z,5.50
2017-12-10T21:24:32.365Z,5.20
2017-12-10T21:26:59.996Z,5.20
2017-12-10T21:29:27.537Z,5.30
2017-12-10T21:31:55.100Z,5.30
2017-12-10T21:34:22.657Z,5.40
2017-12-10T21:36:50.324Z,5.30
2017-12-10T21:39:17.889Z,5.30
2017-12-10T21:41:45.436Z,5.20
2017-12-10T21:44:13.349Z,5.20
2017-12-10T21:46:41.648Z,5.20
2017-12-10T21:49:09.240Z,5.10
2017-12-10T21:51:36.756Z,5.20
2017-12-10T21:54:04.285Z,5.10
2017-12-10T21:56:32.573Z,5.00
2017-12-10T21:59:00.860Z,5.10
2017-12-10T22:01:28.476Z,5.00
2017-12-10T22:03:56.005Z,5.00
2017-12-10T22:06:23.598Z,5.00
2017-12-10T22:08:51.124Z,5.00
2017-12-10T22:11:18.640Z,5.00
2017-12-10T22:13:46.992Z,5.10
2017-12-10T22:16:14.549Z,5.10
2017-12-10T22:18:42.112Z,5.10
2017-12-10T22:21:09.660Z,5.00
2017-12-10T22:23:37.239Z,5.00
2017-12-10T22:26:04.788Z,4.90
2017-12-10T22:28:32.351Z,4.90
2017-12-10T22:31:00.324Z,4.90
2017-12-10T22:33:27.880Z,4.80
2017-12-10T22:35:55.405Z,4.80
2017-12-10T22:38:24.124Z,4.90
2017-12-10T22:40:51.689Z,4.80
2017-12-10T22:43:19.244Z,4.80
2017-12-10T22:45:46.777Z,4.70
2017-12-10T22:48:14.753Z,4.50
2017-12-10T22:50:43.557Z,4.40
2017-12-10T22:53:11.156Z,4.40
2017-12-10T22:55:39.524Z,4.50
2017-12-10T22:58:07.801Z,4.50
2017-12-10T23:00:35.304Z,4.50
2017-12-10T23:03:02.824Z,4.60
2017-12-10T23:05:30.357Z,4.60
2017-12-10T23:07:57.880Z,4.60
2017-12-10T23:10:25.369Z,4.60
2017-12-10T23:12:52.940Z,4.60
2017-12-10T23:15:20.459Z,4.60
2017-12-10T23:17:48.716Z,4.60
2017-12-10T23:20:22.801Z,4.50
2017-12-10T23:22:50.696Z,4.50
2017-12-10T23:25:19.025Z,4.50
2017-12-10T23:27:47.404Z,4.40
2017-12-10T23:30:14.967Z,4.40
2017-12-10T23:32:43.165Z,4.40
2017-12-10T23:35:10.700Z,4.30
2017-12-10T23:37:38.192Z,4.30
2017-12-10T23:40:05.720Z,4.40
2017-12-10T23:42:33.228Z,4.30
2017-12-10T23:45:01.557Z,4.40
2017-12-10T23:47:29.444Z,4.50
2017-12-10T23:49:56.980Z,4.60
2017-12-10T23:52:24.472Z,4.80
2017-12-10T23:54:52.000Z,4.80
2017-12-10T23:57:19.487Z,4.80
2017-12-10T23:59:47.112Z,5.00
